Terminal Aerodrome Forecast
Issued by NWS Detroit/Pontiac, MI

Home | Current Version | Previous Version | Text Only | Print | Product List | Glossary On
Versions: 1 2 3 4 5 6 7 8 9 10 11 12 13 14 15 16 17
602
FTUS43 KDTX 281120
TAFFNT
TAF
KFNT 281120Z 2812/2912 18006KT P6SM SCT050 BKN250
     FM281500 20011KT P6SM BKN045 BKN200
      TEMPO 2818/2821 3SM TSRA BKN035CB
     FM290000 20006KT P6SM SCT060 BKN150=

USA.gov is the U.S. government's official web portal to all federal, state and local government web resources and services.